Time;durP1;ratioP1;P1;durP2;ratioP2;P2;SDS_P1;SDS_P2;PMS_P1;PMS_P2;Temp;Humidity;BMP_temperature;BMP_pressure;BME280_temperature;BME280_humidity;BME280_pressure;Samples;Min_cycle;Max_cycle;Signal;HPM_P1;HPM_P2
2023/10/29 00:01:05;;;;;;;7.77;3.57;;;;;;;17.96;68.65;99204.66;5073041;28;20205;-58
2023/10/29 00:03:32;;;;;;;4.07;3.70;;;;;;;17.99;68.27;99209.53;5073063;28;20271;-58
2023/10/29 00:05:58;;;;;;;4.43;3.47;;;;;;;17.98;68.53;99219.50;5072888;28;20202;-58
2023/10/29 00:08:25;;;;;;;6.27;3.83;;;;;;;17.94;68.21;99221.06;5072972;28;20199;-58
2023/10/29 00:10:53;;;;;;;4.40;3.43;;;;;;;17.93;68.12;99227.47;5072410;28;20196;-58
2023/10/29 00:13:22;;;;;;;7.40;3.60;;;;;;;17.89;68.11;99230.94;5072547;28;20292;-57
2023/10/29 00:15:49;;;;;;;8.60;3.17;;;;;;;17.82;68.84;99235.66;5072784;28;20242;-57
2023/10/29 00:18:17;;;;;;;3.63;3.33;;;;;;;17.82;69.04;99247.22;5072305;28;20667;-58
2023/10/29 00:20:44;;;;;;;7.10;3.10;;;;;;;17.88;69.43;99246.22;5072742;28;20284;-57
2023/10/29 00:23:11;;;;;;;5.67;3.60;;;;;;;17.93;67.69;99253.56;5072238;28;20710;-58
2023/10/29 00:25:38;;;;;;;6.60;3.40;;;;;;;17.87;67.69;99239.22;5072449;28;20223;-59
2023/10/29 00:28:07;;;;;;;5.20;4.13;;;;;;;18.02;67.43;99257.44;5072349;28;20289;-58
2023/10/29 00:30:34;;;;;;;4.57;3.37;;;;;;;17.94;67.87;99260.53;5072277;28;20207;-58
2023/10/29 00:33:01;;;;;;;4.87;3.30;;;;;;;17.96;67.85;99269.16;5071932;28;20194;-58
2023/10/29 00:35:27;;;;;;;5.43;3.80;;;;;;;17.94;68.02;99265.91;5071889;28;20266;-57
2023/10/29 00:37:54;;;;;;;4.63;4.07;;;;;;;17.92;68.14;99268.84;5071885;28;20197;-58
2023/10/29 00:40:21;;;;;;;7.20;4.37;;;;;;;17.88;68.01;99278.47;5072002;28;20191;-57
2023/10/29 00:42:48;;;;;;;5.27;4.40;;;;;;;17.75;68.73;99280.69;5071883;28;20188;-58
2023/10/29 00:45:16;;;;;;;6.87;4.37;;;;;;;17.62;70.07;99281.88;5071937;28;20256;-57
2023/10/29 00:47:43;;;;;;;5.20;4.43;;;;;;;17.59;69.34;99274.28;5071894;28;20196;-57
2023/10/29 00:50:10;;;;;;;10.07;4.87;;;;;;;17.53;69.27;99279.84;5072216;28;20628;-58
2023/10/29 00:52:37;;;;;;;10.00;4.20;;;;;;;17.51;69.49;99288.13;5071578;28;20631;-58
2023/10/29 00:55:05;;;;;;;4.60;3.90;;;;;;;17.53;69.41;99286.03;5072043;28;20223;-57
2023/10/29 00:57:31;;;;;;;6.40;4.17;;;;;;;17.53;69.44;99279.84;5071651;28;20630;-57
2023/10/29 00:59:58;;;;;;;7.20;4.50;;;;;;;17.48;70.41;99282.44;5071903;28;20273;-58
2023/10/29 01:02:27;;;;;;;5.37;4.40;;;;;;;17.47;70.37;99280.84;5071992;28;20267;-57
2023/10/29 01:04:54;;;;;;;5.63;4.07;;;;;;;17.46;70.54;99287.25;5071577;28;20649;-58
2023/10/29 01:07:20;;;;;;;4.97;4.17;;;;;;;17.41;70.19;99285.31;5071764;28;20192;-58
2023/10/29 01:09:47;;;;;;;7.10;4.20;;;;;;;17.28;71.21;99288.28;5071558;28;20203;-58
2023/10/29 01:12:17;;;;;;;7.43;4.80;;;;;;;17.21;71.52;99287.63;5071469;28;20656;-58
2023/10/29 01:14:44;;;;;;;6.57;4.83;;;;;;;17.11;71.87;99292.81;5071303;28;20217;-57
2023/10/29 01:17:11;;;;;;;7.10;5.33;;;;;;;17.02;72.39;99298.84;5071676;28;20202;-57
2023/10/29 01:19:39;;;;;;;12.20;6.50;;;;;;;16.94;72.18;99301.91;5071716;28;20246;-58
2023/10/29 01:22:06;;;;;;;9.17;5.47;;;;;;;16.84;73.00;99296.34;5071527;28;20268;-57
2023/10/29 01:24:34;;;;;;;9.83;4.97;;;;;;;16.85;73.50;99297.97;5071704;28;20261;-57
2023/10/29 01:27:03;;;;;;;8.87;5.83;;;;;;;16.92;73.16;99287.91;5071397;28;20236;-58
2023/10/29 01:29:30;;;;;;;6.17;5.30;;;;;;;16.97;73.26;99296.88;5071440;28;20196;-58
2023/10/29 01:31:56;;;;;;;8.67;5.83;;;;;;;17.00;72.79;99292.88;5071432;28;20196;-58
2023/10/29 01:34:24;;;;;;;13.50;6.13;;;;;;;17.01;72.46;99297.19;5071599;28;20223;-58
2023/10/29 01:36:52;;;;;;;6.13;5.63;;;;;;;16.97;72.64;99296.03;5071134;28;20191;-58
2023/10/29 01:39:18;;;;;;;8.90;6.17;;;;;;;16.89;73.20;99288.38;5071605;28;20256;-57
2023/10/29 01:41:45;;;;;;;8.60;6.30;;;;;;;16.93;73.93;99285.00;5071367;28;20197;-58
2023/10/29 01:44:12;;;;;;;12.93;7.67;;;;;;;16.88;74.47;99292.97;5071022;28;20200;-58
2023/10/29 01:46:39;;;;;;;9.13;5.90;;;;;;;16.89;74.16;99294.59;5070981;28;20192;-58
2023/10/29 01:49:09;;;;;;;14.50;7.40;;;;;;;16.80;74.56;99301.41;5070949;28;20197;-58
2023/10/29 01:51:36;;;;;;;9.50;6.23;;;;;;;16.81;74.73;99302.19;5071134;28;20184;-59
2023/10/29 01:54:04;;;;;;;7.57;6.83;;;;;;;16.84;74.30;99304.41;5071159;28;20251;-57
2023/10/29 01:56:31;;;;;;;11.57;7.37;;;;;;;16.81;73.67;99307.56;5070953;28;20553;-58
2023/10/29 01:58:58;;;;;;;8.80;6.67;;;;;;;16.73;73.74;99299.91;5070922;28;20548;-58
2023/10/29 02:01:25;;;;;;;13.10;6.33;;;;;;;16.75;74.20;99308.53;5071327;28;20188;-58
2023/10/29 02:03:52;;;;;;;7.67;6.13;;;;;;;16.80;74.59;99308.63;5070741;28;20204;-58
2023/10/29 02:06:19;;;;;;;8.17;6.63;;;;;;;16.80;73.54;99301.41;5070872;28;20614;-58
2023/10/29 02:08:46;;;;;;;10.33;6.23;;;;;;;16.81;73.16;99308.38;5070759;28;20279;-58
2023/10/29 02:11:14;;;;;;;6.27;5.77;;;;;;;16.80;73.68;99314.00;5070801;28;20257;-58
2023/10/29 02:13:41;;;;;;;9.73;5.17;;;;;;;16.79;73.10;99315.03;5070790;28;20192;-57
2023/10/29 02:16:08;;;;;;;7.20;5.30;;;;;;;16.73;73.32;99311.44;5070792;28;20671;-58
2023/10/29 02:18:35;;;;;;;7.47;5.93;;;;;;;16.74;73.66;99320.31;5070982;28;20235;-58
2023/10/29 02:21:02;;;;;;;10.83;5.60;;;;;;;16.62;73.88;99306.94;5070872;28;20257;-58
2023/10/29 02:23:30;;;;;;;12.23;6.07;;;;;;;16.63;73.99;99321.19;5071072;28;20242;-58
2023/10/29 02:25:57;;;;;;;8.07;5.90;;;;;;;16.59;75.18;99320.84;5070937;28;20196;-58
2023/10/29 02:28:24;;;;;;;6.47;5.77;;;;;;;16.56;75.24;99320.50;5071035;28;20281;-58
2023/10/29 02:30:51;;;;;;;10.47;6.50;;;;;;;16.57;75.14;99327.50;5070720;28;20197;-58
2023/10/29 02:33:18;;;;;;;9.67;5.37;;;;;;;16.57;74.76;99327.50;5070852;28;20230;-58
2023/10/29 02:35:46;;;;;;;11.23;5.40;;;;;;;16.56;75.15;99331.22;5070641;28;20271;-58
2023/10/29 02:38:14;;;;;;;5.07;4.63;;;;;;;16.50;75.40;99337.53;5070654;28;20192;-58
2023/10/29 02:40:42;;;;;;;8.17;5.47;;;;;;;16.48;75.22;99334.28;5070895;28;20283;-58
2023/10/29 02:43:10;;;;;;;5.77;4.70;;;;;;;16.54;74.55;99330.66;5070795;28;20250;-58
2023/10/29 02:45:37;;;;;;;8.07;4.97;;;;;;;16.54;74.12;99338.69;5070615;28;20215;-58
2023/10/29 02:48:04;;;;;;;6.80;4.83;;;;;;;16.59;74.54;99339.63;5070533;28;20663;-58
2023/10/29 02:50:30;;;;;;;9.60;4.80;;;;;;;16.63;73.90;99337.25;5070775;28;20253;-58
2023/10/29 02:52:57;;;;;;;5.93;4.40;;;;;;;16.66;73.67;99342.97;5070709;28;20200;-58
2023/10/29 02:55:24;;;;;;;5.03;4.27;;;;;;;16.69;73.40;99352.38;5070497;28;20223;-58
2023/10/29 02:57:52;;;;;;;8.23;4.40;;;;;;;16.68;73.50;99348.09;5070304;28;20219;-58
2023/10/29 03:00:19;;;;;;;6.37;4.30;;;;;;;16.68;73.71;99361.50;5073443;28;20248;-58
2023/10/29 03:02:45;;;;;;;5.97;4.33;;;;;;;16.71;73.89;99358.34;5074134;28;20192;-58
2023/10/29 03:05:12;;;;;;;6.50;4.23;;;;;;;16.73;73.53;99356.22;5073489;28;20642;-58
2023/10/29 03:07:38;;;;;;;5.23;3.67;;;;;;;16.77;73.58;99357.38;5073981;28;20222;-58
2023/10/29 03:10:06;;;;;;;5.03;3.93;;;;;;;16.84;73.04;99360.75;5074111;28;20193;-58
2023/10/29 03:12:32;;;;;;;4.03;3.37;;;;;;;16.86;72.74;99358.66;5073787;28;20192;-59
2023/10/29 03:15:01;;;;;;;4.73;3.47;;;;;;;16.79;71.80;99369.53;5073850;28;20647;-58
2023/10/29 03:17:28;;;;;;;8.87;3.30;;;;;;;16.79;72.37;99364.16;5073800;28;20196;-58
2023/10/29 03:19:55;;;;;;;9.87;2.93;;;;;;;16.85;71.66;99371.25;5073626;28;20732;-58
2023/10/29 03:22:21;;;;;;;6.07;3.13;;;;;;;16.87;71.82;99371.00;5073832;28;20199;-58
2023/10/29 03:24:48;;;;;;;5.53;3.17;;;;;;;16.90;71.23;99386.63;5073513;28;20195;-58
2023/10/29 03:27:15;;;;;;;7.40;3.27;;;;;;;16.91;71.12;99380.19;5073624;28;20227;-58
2023/10/29 03:29:42;;;;;;;5.27;2.80;;;;;;;16.84;70.89;99385.72;5073312;28;20195;-58
2023/10/29 03:32:10;;;;;;;4.20;3.00;;;;;;;16.81;71.16;99393.41;5073424;28;20720;-58
2023/10/29 03:34:37;;;;;;;7.10;3.47;;;;;;;16.76;71.25;99390.63;5073599;28;20223;-58
2023/10/29 03:37:05;;;;;;;10.37;3.43;;;;;;;16.73;71.89;99391.94;5073627;28;20253;-58
2023/10/29 03:39:31;;;;;;;4.47;3.20;;;;;;;16.66;71.65;99390.44;5073313;28;20552;-58
2023/10/29 03:41:58;;;;;;;8.70;3.00;;;;;;;16.54;72.07;99398.50;5073181;28;20248;-58
2023/10/29 03:44:25;;;;;;;4.23;3.03;;;;;;;16.49;72.38;99408.31;5073333;28;20196;-59
2023/10/29 03:46:52;;;;;;;4.77;2.90;;;;;;;16.46;73.63;99406.91;5073090;28;20693;-58
2023/10/29 03:49:20;;;;;;;4.80;2.97;;;;;;;16.45;72.35;99405.28;5073382;28;20236;-58
2023/10/29 03:51:48;;;;;;;7.60;3.00;;;;;;;16.46;72.46;99411.47;5073391;28;20249;-59
2023/10/29 03:54:15;;;;;;;6.30;2.20;;;;;;;16.38;72.85;99407.25;5072853;28;20645;-57
2023/10/29 03:56:41;;;;;;;5.20;3.07;;;;;;;16.30;73.35;99415.66;5073306;28;20257;-58
2023/10/29 03:59:09;;;;;;;3.30;3.00;;;;;;;16.24;72.80;99408.53;5073121;28;20204;-58
2023/10/29 04:01:36;;;;;;;5.23;3.20;;;;;;;16.19;73.17;99411.09;5073129;28;20242;-58
2023/10/29 04:04:03;;;;;;;4.37;3.43;;;;;;;16.10;72.92;99414.38;5072755;28;20713;-58
2023/10/29 04:06:31;;;;;;;4.63;3.20;;;;;;;16.00;74.05;99414.16;5072783;28;20286;-58
2023/10/29 04:08:58;;;;;;;5.37;2.90;;;;;;;16.06;74.85;99414.03;5072954;28;20200;-60
2023/10/29 04:11:25;;;;;;;5.43;3.30;;;;;;;16.11;74.70;99418.66;5072698;28;20192;-58
2023/10/29 04:13:51;;;;;;;10.57;3.37;;;;;;;16.15;73.19;99423.34;5072903;28;20245;-58
2023/10/29 04:16:18;;;;;;;3.70;2.10;;;;;;;16.15;72.41;99422.50;5072582;28;20220;-58
2023/10/29 04:18:45;;;;;;;5.70;3.20;;;;;;;16.08;73.27;99425.31;5072751;28;20282;-58
2023/10/29 04:21:11;;;;;;;5.87;2.90;;;;;;;15.97;72.99;99436.03;5072792;28;20188;-58
2023/10/29 04:23:40;;;;;;;6.07;3.20;;;;;;;15.83;74.54;99430.91;5072603;28;20578;-58
2023/10/29 04:26:06;;;;;;;2.70;2.50;;;;;;;15.86;73.95;99427.75;5072370;28;20196;-58
2023/10/29 04:28:33;;;;;;;6.03;2.83;;;;;;;15.79;74.56;99429.72;5072739;28;20266;-57
2023/10/29 04:31:00;;;;;;;4.13;2.60;;;;;;;15.83;74.03;99425.53;5072451;28;20234;-58
2023/10/29 04:33:27;;;;;;;5.00;2.70;;;;;;;15.83;74.38;99422.88;5072659;28;20245;-57
2023/10/29 04:35:54;;;;;;;10.63;3.03;;;;;;;15.69;74.76;99429.47;5071945;28;20215;-58
2023/10/29 04:38:21;;;;;;;3.50;2.53;;;;;;;15.66;74.32;99424.59;5072144;28;20750;-58
2023/10/29 04:40:49;;;;;;;4.57;2.90;;;;;;;15.58;74.55;99424.91;5072200;28;20196;-58
2023/10/29 04:43:15;;;;;;;8.03;3.33;;;;;;;15.57;75.43;99430.50;5071770;28;20659;-58
2023/10/29 04:45:42;;;;;;;5.43;2.70;;;;;;;15.62;74.97;99442.16;5072105;28;20200;-57
2023/10/29 04:48:09;;;;;;;4.30;2.60;;;;;;;15.68;74.44;99438.56;5071860;28;20258;-58
2023/10/29 04:50:35;;;;;;;11.63;3.07;;;;;;;15.75;75.19;99447.31;5071683;28;20192;-58
2023/10/29 04:53:02;;;;;;;6.73;3.33;;;;;;;15.74;74.30;99444.84;5071655;28;20642;-58
2023/10/29 04:55:29;;;;;;;3.00;2.80;;;;;;;15.84;73.92;99455.81;5071456;28;20311;-58
2023/10/29 04:57:58;;;;;;;5.73;2.97;;;;;;;15.90;73.89;99455.69;5071620;28;20671;-58
2023/10/29 05:00:24;;;;;;;3.97;2.70;;;;;;;15.98;73.60;99463.41;5071419;28;20660;-58
2023/10/29 05:02:51;;;;;;;3.57;2.80;;;;;;;16.00;74.05;99465.06;5071909;28;20196;-57
2023/10/29 05:05:18;;;;;;;11.83;3.27;;;;;;;16.06;73.76;99469.47;5071479;28;20257;-58
2023/10/29 05:07:45;;;;;;;4.70;2.63;;;;;;;16.00;73.51;99470.41;5071336;28;20710;-59
2023/10/29 05:10:13;;;;;;;4.93;2.77;;;;;;;16.01;73.93;99464.00;5071438;28;20196;-58
2023/10/29 05:12:40;;;;;;;6.63;3.17;;;;;;;16.12;73.98;99468.56;5071466;28;20191;-58
2023/10/29 05:15:12;;;;;;;3.63;2.30;;;;;;;16.24;73.69;99467.50;5071285;28;20772;-58
2023/10/29 05:17:40;;;;;;;4.57;2.90;;;;;;;16.41;73.71;99473.03;5071347;28;20191;-58
2023/10/29 05:20:10;;;;;;;4.87;2.80;;;;;;;16.54;72.66;99478.13;5071555;28;20303;-58
2023/10/29 05:22:37;;;;;;;9.00;3.40;;;;;;;16.64;72.37;99478.34;5070993;28;20277;-58
2023/10/29 05:25:04;;;;;;;7.03;3.10;;;;;;;16.79;71.89;99486.72;5071172;28;20196;-58
2023/10/29 05:27:31;;;;;;;8.40;2.80;;;;;;;17.06;71.79;99485.16;5071535;28;20238;-57
2023/10/29 05:29:59;;;;;;;6.33;3.17;;;;;;;17.32;70.17;99484.59;5071083;28;20238;-59
2023/10/29 05:32:28;;;;;;;5.20;3.30;;;;;;;17.61;68.68;99502.38;5071654;28;20192;-58
2023/10/29 05:34:55;;;;;;;5.43;2.33;;;;;;;17.93;70.82;99506.97;5071130;28;20226;-61
2023/10/29 05:37:21;;;;;;;2.73;2.33;;;;;;;18.61;69.31;99509.44;5071617;28;20241;-61
2023/10/29 05:39:49;;;;;;;9.00;3.20;;;;;;;19.25;65.86;99517.63;5070769;28;20196;-60
2023/10/29 05:42:15;;;;;;;51.00;5.27;;;;;;;19.80;62.89;99530.88;5071444;28;20189;-62
2023/10/29 05:44:42;;;;;;;6.70;3.00;;;;;;;20.31;59.94;99525.72;5070735;28;20188;-62
2023/10/29 05:47:09;;;;;;;11.90;4.10;;;;;;;20.84;59.92;99527.44;5071037;28;20667;-62
2023/10/29 05:49:37;;;;;;;7.20;3.60;;;;;;;21.37;56.73;99532.59;5071352;28;20256;-63
2023/10/29 05:52:03;;;;;;;7.83;2.90;;;;;;;21.72;53.65;99535.41;5071283;28;20196;-60
2023/10/29 05:54:30;;;;;;;7.70;2.80;;;;;;;21.78;52.81;99533.53;5070984;28;20218;-60
2023/10/29 05:56:57;;;;;;;3.80;2.83;;;;;;;21.80;52.20;99543.00;5071106;28;20231;-60
2023/10/29 05:59:24;;;;;;;6.57;2.50;;;;;;;21.79;52.04;99552.22;5071083;28;20192;-59
2023/10/29 06:01:51;;;;;;;7.47;2.33;;;;;;;21.89;51.75;99557.63;5070796;28;20720;-59
2023/10/29 06:04:17;;;;;;;9.87;2.77;;;;;;;21.90;51.13;99564.69;5071244;28;20188;-59
2023/10/29 06:06:45;;;;;;;3.13;2.83;;;;;;;21.83;51.67;99576.81;5071105;28;20195;-59
2023/10/29 06:09:12;;;;;;;5.87;3.00;;;;;;;21.77;51.07;99577.91;5071209;28;20188;-59
2023/10/29 06:11:41;;;;;;;4.47;2.80;;;;;;;21.65;51.44;99586.22;5070930;28;20257;-59
2023/10/29 06:14:08;;;;;;;8.87;2.90;;;;;;;21.60;52.04;99580.78;5069861;28;20257;-60
2023/10/29 06:16:34;;;;;;;18.70;3.83;;;;;;;21.68;51.34;99588.38;5069519;28;20220;-60
2023/10/29 06:19:02;;;;;;;7.83;2.97;;;;;;;21.73;51.35;99588.44;5070268;28;20192;-60
2023/10/29 06:21:29;;;;;;;23.60;4.37;;;;;;;21.64;51.18;99581.06;5070443;28;20188;-60
2023/10/29 06:23:57;;;;;;;5.07;2.60;;;;;;;21.52;51.38;99584.00;5070392;28;20200;-60
2023/10/29 06:26:24;;;;;;;5.87;2.43;;;;;;;21.54;52.06;99581.84;5070135;28;20618;-60
2023/10/29 06:28:51;;;;;;;6.07;3.10;;;;;;;21.65;51.64;99588.94;5071042;28;20278;-59
2023/10/29 06:31:17;;;;;;;6.97;2.47;;;;;;;21.80;50.94;99594.41;5070223;28;20196;-60
2023/10/29 06:33:44;;;;;;;4.73;3.07;;;;;;;21.97;50.76;99602.28;5072647;28;20196;-60
2023/10/29 06:36:11;;;;;;;15.40;3.03;;;;;;;22.24;49.64;99603.69;5074242;28;20220;-59
2023/10/29 06:38:38;;;;;;;32.80;4.47;;;;;;;22.42;49.45;99599.66;5074256;28;20621;-60
2023/10/29 06:41:06;;;;;;;8.30;3.20;;;;;;;22.66;48.37;99604.28;5074489;28;20196;-60
2023/10/29 06:43:34;;;;;;;5.27;2.50;;;;;;;22.94;48.42;99609.13;5074328;28;20249;-59
2023/10/29 06:46:01;;;;;;;5.23;2.47;;;;;;;23.23;46.00;99612.91;5074355;28;20258;-59
2023/10/29 06:48:28;;;;;;;21.70;3.27;;;;;;;23.44;46.14;99609.03;5074115;28;20194;-60
2023/10/29 06:50:54;;;;;;;7.70;2.50;;;;;;;23.63;46.04;99617.38;5074250;28;20202;-61
2023/10/29 06:53:21;;;;;;;5.77;3.30;;;;;;;23.83;45.55;99612.69;5073993;28;20198;-60
2023/10/29 06:55:48;;;;;;;4.33;2.53;;;;;;;24.01;44.32;99617.50;5073679;28;20647;-60
2023/10/29 06:58:16;;;;;;;5.07;2.47;;;;;;;24.21;43.85;99625.53;5074281;28;20264;-60
2023/10/29 07:00:42;;;;;;;4.70;2.80;;;;;;;24.40;43.58;99623.78;5074051;28;20191;-60
2023/10/29 07:03:09;;;;;;;2.20;1.90;;;;;;;24.22;42.57;99626.34;5074336;28;20202;-60
2023/10/29 07:05:36;;;;;;;5.40;2.93;;;;;;;24.04;43.02;99625.09;5073721;28;20275;-60
2023/10/29 07:08:03;;;;;;;11.13;2.73;;;;;;;24.22;43.30;99619.00;5073880;28;20683;-60
2023/10/29 07:10:29;;;;;;;6.03;3.23;;;;;;;24.47;42.53;99621.53;5073800;28;20200;-60
2023/10/29 07:12:56;;;;;;;4.27;2.77;;;;;;;24.65;42.52;99620.06;5073992;28;20260;-60
2023/10/29 07:15:25;;;;;;;7.10;2.80;;;;;;;24.52;43.03;99616.06;5073656;28;20706;-60
2023/10/29 07:17:51;;;;;;;3.63;2.17;;;;;;;24.59;41.57;99621.97;5073970;28;20196;-59
2023/10/29 07:20:18;;;;;;;4.20;2.13;;;;;;;24.49;41.39;99619.34;5073616;28;20682;-60
2023/10/29 07:22:45;;;;;;;4.70;1.83;;;;;;;24.30;42.69;99612.16;5073692;28;20260;-59
2023/10/29 07:25:12;;;;;;;4.50;2.30;;;;;;;24.50;42.92;99615.53;5073581;28;20199;-59
2023/10/29 07:27:39;;;;;;;4.87;2.30;;;;;;;24.82;41.40;99615.84;5073448;28;20234;-60
2023/10/29 07:30:07;;;;;;;9.17;2.73;;;;;;;24.93;41.39;99617.38;5073378;28;20195;-60
2023/10/29 07:32:35;;;;;;;10.50;2.40;;;;;;;25.23;40.80;99612.72;5073232;28;20195;-60
2023/10/29 07:35:02;;;;;;;6.60;2.23;;;;;;;25.45;39.53;99619.31;5073512;28;20245;-60
2023/10/29 07:37:29;;;;;;;4.50;2.40;;;;;;;25.73;40.20;99620.34;5073538;28;20273;-60
2023/10/29 07:39:56;;;;;;;10.03;2.90;;;;;;;25.69;39.09;99624.72;5073195;28;20214;-60
2023/10/29 07:42:23;;;;;;;7.93;2.53;;;;;;;25.88;39.79;99617.41;5072886;28;20196;-60
2023/10/29 07:44:49;;;;;;;4.07;2.13;;;;;;;25.47;39.47;99629.91;5072334;28;20196;-59
2023/10/29 07:47:16;;;;;;;4.70;2.10;;;;;;;25.52;40.15;99625.19;5073028;28;20241;-59
2023/10/29 07:49:44;;;;;;;3.33;2.40;;;;;;;25.79;38.55;99628.13;5072829;28;20249;-59
2023/10/29 07:52:11;;;;;;;6.10;2.80;;;;;;;26.09;37.94;99629.69;5072788;28;20196;-60
2023/10/29 07:54:37;;;;;;;4.40;3.27;;;;;;;26.42;38.09;99629.44;5072862;28;20192;-60
2023/10/29 07:57:04;;;;;;;2.97;2.63;;;;;;;26.72;37.37;99622.72;5072704;28;20224;-59
2023/10/29 07:59:33;;;;;;;6.23;2.60;;;;;;;27.01;36.83;99628.78;5072681;28;20234;-58
2023/10/29 08:02:00;;;;;;;2.33;1.90;;;;;;;27.23;35.75;99623.50;5072846;28;20203;-58
2023/10/29 08:04:28;;;;;;;5.63;2.57;;;;;;;27.38;35.67;99636.84;5073012;28;20196;-58
2023/10/29 08:06:56;;;;;;;3.63;2.40;;;;;;;27.21;35.51;99633.91;5072725;28;20258;-58
2023/10/29 08:09:23;;;;;;;7.80;2.43;;;;;;;27.05;36.04;99632.53;5072872;28;20200;-58
2023/10/29 08:11:49;;;;;;;7.10;2.23;;;;;;;27.17;35.84;99635.56;5072450;28;20232;-59
2023/10/29 08:14:16;;;;;;;4.23;2.10;;;;;;;27.35;35.34;99638.25;5072483;28;20693;-59
2023/10/29 08:16:43;;;;;;;4.10;2.20;;;;;;;27.40;35.32;99643.59;5072610;28;20281;-60
2023/10/29 08:19:10;;;;;;;7.03;2.50;;;;;;;27.45;35.54;99650.91;5072288;28;20732;-58
2023/10/29 08:21:36;;;;;;;4.63;2.30;;;;;;;27.59;35.76;99649.78;5072094;28;20196;-60
2023/10/29 08:24:05;;;;;;;6.40;2.90;;;;;;;27.69;35.14;99651.53;5072417;28;20192;-60
2023/10/29 08:26:33;;;;;;;6.93;2.30;;;;;;;27.60;35.09;99653.34;5071721;28;20203;-60
2023/10/29 08:29:01;;;;;;;3.53;2.00;;;;;;;27.69;35.18;99654.25;5072390;28;20271;-60
2023/10/29 08:31:28;;;;;;;4.30;2.17;;;;;;;27.92;34.53;99654.06;5072413;28;20207;-60
2023/10/29 08:33:55;;;;;;;3.73;2.47;;;;;;;28.08;34.22;99665.47;5072059;28;20200;-61
2023/10/29 08:36:21;;;;;;;4.37;2.17;;;;;;;28.24;34.12;99658.53;5071927;28;20241;-60
2023/10/29 08:38:48;;;;;;;6.70;2.47;;;;;;;28.29;33.91;99658.44;5071759;28;20192;-60
2023/10/29 08:41:17;;;;;;;1.90;1.80;;;;;;;28.17;33.93;99666.38;5072154;28;20192;-60
2023/10/29 08:43:44;;;;;;;8.80;2.50;;;;;;;28.23;33.98;99660.50;5071720;28;20613;-60
2023/10/29 08:46:11;;;;;;;6.20;2.60;;;;;;;28.40;34.23;99662.56;5071742;28;20204;-60
2023/10/29 08:48:38;;;;;;;3.17;2.13;;;;;;;28.46;33.35;99658.63;5071487;28;20245;-60
2023/10/29 08:51:05;;;;;;;3.70;2.30;;;;;;;28.54;33.03;99666.09;5071745;28;20191;-60
2023/10/29 08:53:32;;;;;;;4.53;2.77;;;;;;;28.65;33.45;99662.81;5071634;28;20249;-60
2023/10/29 08:55:59;;;;;;;2.13;1.93;;;;;;;28.39;33.17;99660.94;5071592;28;20227;-59
2023/10/29 08:58:27;;;;;;;3.00;2.40;;;;;;;28.18;33.73;99657.06;5071108;28;20621;-59
2023/10/29 09:00:57;;;;;;;5.80;2.37;;;;;;;28.10;33.97;99666.75;5071919;28;20203;-60
2023/10/29 09:03:24;;;;;;;5.93;2.50;;;;;;;28.21;33.69;99659.16;5071820;28;20190;-59
2023/10/29 09:05:51;;;;;;;5.77;2.20;;;;;;;28.40;33.24;99665.28;5071818;28;20202;-59
2023/10/29 09:08:18;;;;;;;3.27;2.27;;;;;;;28.53;33.03;99659.00;5071301;28;20612;-59
2023/10/29 09:10:45;;;;;;;5.10;2.00;;;;;;;28.61;32.52;99661.00;5071344;28;20617;-59
2023/10/29 09:13:12;;;;;;;3.53;1.93;;;;;;;28.66;32.46;99658.94;5071279;28;20200;-59
2023/10/29 09:15:41;;;;;;;4.47;2.20;;;;;;;28.33;33.16;99653.97;5071463;28;20656;-59
2023/10/29 09:18:08;;;;;;;4.37;2.00;;;;;;;28.20;33.55;99650.16;5071558;28;20227;-59
2023/10/29 09:20:37;;;;;;;3.50;2.37;;;;;;;28.14;33.24;99654.09;5071266;28;20253;-61
2023/10/29 09:23:04;;;;;;;5.50;2.50;;;;;;;28.00;33.65;99652.53;5071555;28;20191;-58
2023/10/29 09:25:31;;;;;;;4.33;1.93;;;;;;;27.80;34.05;99650.19;5071342;28;20282;-59
2023/10/29 09:27:58;;;;;;;4.53;2.23;;;;;;;27.70;34.02;99650.41;5071279;28;20685;-58
2023/10/29 09:30:25;;;;;;;6.40;2.50;;;;;;;27.43;34.44;99645.75;5071414;28;20234;-59
2023/10/29 09:32:53;;;;;;;5.70;1.90;;;;;;;26.96;34.60;99639.78;5071316;28;20222;-58
2023/10/29 09:35:20;;;;;;;3.43;2.27;;;;;;;26.57;35.67;99640.13;5071077;28;20286;-58
2023/10/29 09:37:47;;;;;;;3.70;2.10;;;;;;;26.65;35.25;99633.19;5071142;28;20220;-59
2023/10/29 09:40:16;;;;;;;3.57;2.30;;;;;;;26.69;35.27;99642.41;5071176;28;20192;-58
2023/10/29 09:42:53;;;;;;;3.37;2.10;;;;;;;26.73;35.52;99640.69;5070833;28;20192;-58
2023/10/29 09:45:23;;;;;;;7.93;2.20;;;;;;;26.79;33.91;99612.25;5071488;28;20313;-59
2023/10/29 09:47:49;;;;;;;8.80;2.10;;;;;;;26.93;34.76;99629.47;5071174;28;20281;-58
2023/10/29 09:50:18;;;;;;;3.70;1.83;;;;;;;27.16;34.41;99617.59;5071243;28;20199;-58
2023/10/29 09:52:49;;;;;;;2.27;1.60;;;;;;;27.48;33.82;99621.06;5071207;28;20188;-63
2023/10/29 09:55:16;;;;;;;2.40;1.60;;;;;;;27.52;33.32;99621.28;5070722;28;20569;-59
2023/10/29 09:57:43;;;;;;;4.00;2.00;;;;;;;27.65;33.61;99620.47;5070667;28;20220;-59
2023/10/29 10:00:11;;;;;;;3.03;1.70;;;;;;;27.79;32.43;99615.81;5071152;28;20192;-59
2023/10/29 10:02:50;;;;;;;2.90;2.30;;;;;;;27.69;32.75;99621.50;5070938;28;20208;-59
2023/10/29 10:05:20;;;;;;;6.73;1.77;;;;;;;27.70;32.20;99620.38;5070337;28;20216;-58
2023/10/29 10:07:46;;;;;;;3.53;1.60;;;;;;;27.63;32.13;99614.50;5070578;28;20207;-58
2023/10/29 10:10:14;;;;;;;5.57;1.83;;;;;;;27.78;32.23;99614.19;5074784;28;20195;-58
2023/10/29 10:12:46;;;;;;;4.17;1.73;;;;;;;27.80;31.46;99606.50;5075011;28;20192;-58
2023/10/29 10:15:13;;;;;;;2.83;1.80;;;;;;;27.82;31.63;99609.78;5074757;28;20287;-58
2023/10/29 10:17:40;;;;;;;3.90;1.87;;;;;;;27.59;31.91;99608.03;5074573;28;20255;-59
2023/10/29 10:20:10;;;;;;;4.13;2.20;;;;;;;27.69;32.29;99611.34;5074547;28;20245;-58
2023/10/29 10:22:38;;;;;;;2.33;1.73;;;;;;;27.88;32.71;99603.88;5074625;28;20713;-62
2023/10/29 10:25:06;;;;;;;2.27;1.70;;;;;;;28.09;32.03;99604.25;5074885;28;20551;-59
2023/10/29 10:27:48;;;;;;;3.63;1.77;;;;;;;27.79;31.58;99610.34;5074770;28;20227;-58
2023/10/29 10:30:25;;;;;;;1.67;1.13;;;;;;;27.85;32.13;99609.16;5074645;28;20267;-58
2023/10/29 10:32:52;;;;;;;4.47;1.97;;;;;;;27.78;31.71;99603.28;5074702;28;20655;-59
2023/10/29 10:35:18;;;;;;;1.63;1.50;;;;;;;27.64;31.68;99599.75;5075005;28;20234;-58
2023/10/29 10:37:54;;;;;;;1.83;1.60;;;;;;;27.77;31.83;99591.53;5074256;28;20746;-59
2023/10/29 10:40:26;;;;;;;2.67;1.50;;;;;;;27.84;32.00;99597.44;5074955;28;20234;-58
2023/10/29 10:42:56;;;;;;;4.93;2.10;;;;;;;27.95;31.63;99598.00;5074535;28;20192;-59
2023/10/29 10:45:26;;;;;;;6.40;1.97;;;;;;;28.13;31.58;99589.66;5074313;28;20211;-58
2023/10/29 10:47:57;;;;;;;3.57;1.70;;;;;;;28.27;31.65;99587.72;5074342;28;20615;-60
2023/10/29 10:50:25;;;;;;;4.13;1.90;;;;;;;28.44;31.60;99589.78;5074172;28;20282;-58
2023/10/29 10:52:53;;;;;;;4.27;1.70;;;;;;;28.44;31.39;99567.91;5074539;28;20231;-58
2023/10/29 10:55:20;;;;;;;3.33;1.97;;;;;;;28.57;31.03;99588.91;5073908;28;20192;-58
2023/10/29 10:57:49;;;;;;;4.13;1.77;;;;;;;28.61;30.91;99573.50;5074260;28;20219;-58
2023/10/29 11:00:17;;;;;;;3.23;1.80;;;;;;;28.58;30.65;99574.16;5073737;28;20238;-58
2023/10/29 11:02:44;;;;;;;7.30;3.10;;;;;;;28.51;30.61;99584.69;5074078;28;20227;-58
2023/10/29 11:05:12;;;;;;;2.47;1.80;;;;;;;28.60;30.08;99582.84;5074020;28;20192;-58
2023/10/29 11:07:41;;;;;;;2.93;1.40;;;;;;;28.55;30.17;99583.75;5074392;28;20283;-58
2023/10/29 11:10:12;;;;;;;2.07;1.53;;;;;;;28.52;30.37;99581.66;5074152;28;20278;-58
2023/10/29 11:12:40;;;;;;;5.87;1.87;;;;;;;28.51;30.65;99579.22;5074279;28;20184;-59
2023/10/29 11:15:15;;;;;;;3.40;1.43;;;;;;;28.55;30.39;99570.09;5074122;28;20277;-58
2023/10/29 11:17:52;;;;;;;1.93;1.53;;;;;;;28.68;30.11;99562.94;5073527;28;20767;-57
2023/10/29 11:20:59;;;;;;;4.47;2.00;;;;;;;28.72;29.73;99563.94;5072527;28;20204;-58
2023/10/29 11:23:28;;;;;;;3.33;1.80;;;;;;;28.54;30.50;99564.94;5073632;28;20220;-58
2023/10/29 11:26:21;;;;;;;1.80;1.20;;;;;;;28.57;29.76;99567.03;5073788;28;20265;-58
2023/10/29 11:28:49;;;;;;;3.10;1.50;;;;;;;28.45;29.89;99555.88;5073949;28;20622;-58
2023/10/29 11:31:17;;;;;;;3.30;1.73;;;;;;;28.47;30.52;99553.63;5073899;28;20192;-58
2023/10/29 11:33:45;;;;;;;14.37;2.37;;;;;;;28.46;30.57;99549.31;5073606;28;20200;-58